Latest Weather Observations for Coonabarabran Airport

IDN60801

Issued at 5:32 am EDT Sunday 16 December 2018 (issued every 10 minutes, with the page automatically refreshed every 10 minutes)

About weather observations | Map of weather stations | Latest weather observations for NSW | Other Formats
Station Details ID: 064017 Name: COONABARABRAN AIRPORT AWS Lat: -31.33 Lon: 149.27 Height: 645.0 m
Data from the previous 72 hours. | See also: Recent months at Coonabarabran Airport
Date/Time
EDT
Temp
°C
App
Temp
°C
Dew
Point
°C
Rel
Hum
%
Delta-T
°C
Wind Press
QNH
hPa
Press
MSL
hPa
Rain since
9am
mm
Dir  Spd
km/h
Gust
km/h
Spd
kts
Gust
kts
16/05:30am 18.2 14.1 2.1 34 7.6 N 13 15 7 8 1009.4 1005.8 0.0
16/05:00am 18.3 14.1 1.8 33 7.7 N 13 15 7 8 1009.1 1005.6 0.0
16/04:30am 18.7 15.0 2.1 33 7.8 N 11 13 6 7 1008.9 1005.3 0.0
16/04:00am 18.8 15.1 2.2 33 7.9 N 11 15 6 8 1008.9 1005.3 0.0
16/03:30am 20.1 15.9 1.5 29 8.8 NNE 13 17 7 9 1008.8 1005.2 0.0
16/03:00am 20.0 16.6 1.9 30 8.6 NNE 9 13 5 7 1008.5 1004.9 0.0
16/02:30am 21.9 18.4 1.0 25 9.9 NW 9 9 5 5 1008.4 1004.8 0.0
16/02:00am 21.3 17.6 2.1 28 9.3 W 11 13 6 7 1008.3 1004.7 0.0
16/01:30am 21.5 17.7 1.7 27 9.5 WNW 11 13 6 7 1008.5 1004.9 0.0
16/01:00am 21.5 17.7 -0.5 23 10.1 NW 9 11 5 6 1008.8 1005.2 0.0
16/12:30am 21.9 18.4 -1.4 21 10.5 NNW 7 11 4 6 1008.9 1005.3 0.0
16/12:00am 22.4 18.6 -1.0 21 10.7 NW 9 11 5 6 1008.8 1005.2 0.0
 
Date/Time
EDT
Temp
°C
App
Temp
°C
Dew
Point
°C
Rel
Hum
%
Delta-T
°C
Wind Press
QNH
hPa
Press
MSL
hPa
Rain since
9am
mm
Dir  Spd
km/h
Gust
km/h
Spd
kts
Gust
kts
15/11:30pm 22.9 18.7 -0.6 21 10.9 NW 11 13 6 7 1008.8 1005.2 0.0
15/11:00pm 22.2 17.9 1.3 25 10.0 NW 13 13 7 7 1008.6 1005.0 0.0
15/10:30pm 22.9 18.6 1.3 24 10.4 WNW 13 15 7 8 1008.5 1004.9 0.0
15/10:00pm 23.2 19.4 1.5 24 10.5 WNW 11 13 6 7 1008.3 1004.7 0.0
15/09:30pm 23.4 20.4 3.9 28 9.9 NW 9 11 5 6 1008.0 1004.4 0.0
15/09:00pm 23.8 20.6 5.2 30 9.7 NW 11 13 6 7 1007.4 1003.8 0.0
15/08:30pm 24.6 22.2 5.4 29 10.0 N 7 13 4 7 1007.0 1003.4 0.0
15/08:00pm 25.6 22.7 4.7 26 10.9 N 9 15 5 8 1006.8 1003.2 0.0
15/07:30pm 26.6 21.9 3.2 22 11.9 NNW 17 20 9 11 1006.4 1002.8 0.0
15/07:00pm 27.1 22.1 3.6 22 12.1 NNW 19 30 10 16 1006.0 1002.3 0.0
15/06:30pm 27.3 22.3 4.4 23 12.0 NNW 20 28 11 15 1005.8 1002.2 0.0
15/06:00pm 27.6 22.6 4.6 23 12.1 N 20 32 11 17 1005.7 1002.1 0.0
15/05:30pm 27.6 21.2 3.3 21 12.5 NNW 26 41 14 22 1005.5 1001.9 0.0
15/05:00pm 27.7 21.3 3.4 21 12.5 NNW 26 39 14 21 1005.7 1002.1 0.0
15/04:30pm 28.0 23.2 5.6 24 12.0 N 20 39 11 21 1006.0 1002.3 0.0
15/04:00pm 27.8 22.5 4.8 23 12.2 NNW 22 37 12 20 1006.2 1002.5 0.0
15/03:30pm 27.5 22.0 5.7 25 11.7 N 24 39 13 21 1006.6 1003.0 0.0
15/03:00pm 27.7 22.1 5.3 24 11.9 N 24 41 13 22 1006.9 1003.3 0.0
15/02:44pm 27.1 20.7 5.4 25 11.5 N 28 48 15 26 1007.0 1003.4 0.0
15/02:30pm 26.9 21.3 5.2 25 11.5 N 24 39 13 21 1007.1 1003.5 0.0
15/02:00pm 27.7 23.4 7.0 27 11.4 N 19 39 10 21 1007.4 1003.8 0.0
15/01:30pm 26.3 21.5 5.8 27 10.9 NNW 20 37 11 20 1007.6 1003.9 0.0
15/01:00pm 26.1 20.3 6.2 28 10.7 N 26 39 14 21 1008.1 1004.5 0.0
15/12:30pm 25.7 20.9 5.8 28 10.6 N 20 37 11 20 1008.3 1004.7 0.0
15/12:00pm 26.0 21.0 6.6 29 10.5 N 22 39 12 21 1008.6 1005.0 0.0
15/11:30am 24.5 20.3 3.8 26 10.5 NNW 15 22 8 12 1008.8 1005.2 0.0
15/11:00am 24.0 18.9 3.3 26 10.4 N 19 28 10 15 1009.3 1005.7 0.0
15/10:30am 24.1 19.2 2.3 24 10.7 NNW 17 24 9 13 1009.5 1005.9 0.0
15/10:00am 23.0 17.4 1.4 24 10.4 NNW 20 30 11 16 1009.6 1006.0 0.0
15/09:30am 21.8 18.0 3.9 31 8.9 NNE 13 19 7 10 1009.3 1005.7 0.0
15/09:00am 20.8 17.9 6.7 40 7.4 NNE 11 17 6 9 1009.1 1005.6 0.2
15/08:30am 20.0 16.9 7.1 43 6.8 N 13 17 7 9 1009.3 1005.7 0.2
15/08:00am 18.6 16.2 7.1 47 6.0 NNE 9 13 5 7 1008.7 1005.1 0.2
15/07:30am 18.1 15.4 5.7 44 6.3 N 9 13 5 7 1008.1 1004.5 0.2
15/07:00am 17.3 14.8 6.5 49 5.5 N 9 11 5 6 1007.8 1004.2 0.2
15/06:30am 16.7 13.8 6.5 51 5.2 N 11 13 6 7 1007.6 1003.9 0.2
15/06:00am 16.2 13.3 6.6 53 4.9 N 11 13 6 7 1007.1 1003.5 0.2
15/05:30am 17.0 13.9 5.6 47 5.7 N 11 15 6 8 1006.7 1003.1 0.2
15/05:00am 16.7 14.3 7.1 53 5.0 N 9 11 5 6 1006.6 1003.0 0.2
15/04:30am 16.5 14.0 6.6 52 5.0 N 9 11 5 6 1006.4 1002.8 0.2
15/04:00am 16.6 14.2 7.0 53 4.9 N 9 11 5 6 1006.3 1002.7 0.2
15/03:30am 16.3 14.1 8.0 58 4.3 NNW 9 13 5 7 1006.2 1002.5 0.2
15/03:00am 16.9 14.2 7.5 54 4.9 N 11 15 6 8 1006.3 1002.7 0.2
15/02:30am 17.6 14.5 7.4 51 5.3 NNE 13 15 7 8 1006.4 1002.8 0.2
15/02:00am 18.0 15.6 7.1 49 5.7 NNE 9 13 5 7 1006.6 1003.0 0.2
15/01:30am 18.1 15.7 7.2 49 5.7 NNE 9 13 5 7 1006.7 1003.1 0.2
15/01:00am 18.5 16.6 6.7 46 6.1 NNE 6 13 3 7 1006.7 1003.1 0.2
15/12:30am 18.7 16.8 7.5 48 5.9 N 7 17 4 9 1006.9 1003.3 0.2
15/12:00am 17.3 15.8 9.0 58 4.5 E 7 15 4 8 1006.9 1003.3 0.2
 
Date/Time
EDT
Temp
°C
App
Temp
°C
Dew
Point
°C
Rel
Hum
%
Delta-T
°C
Wind Press
QNH
hPa
Press
MSL
hPa
Rain since
9am
mm
Dir  Spd
km/h
Gust
km/h
Spd
kts
Gust
kts
14/11:30pm 18.1 16.5 8.1 52 5.3 N 6 15 3 8 1006.9 1003.3 0.2
14/11:00pm 18.6 16.9 8.3 51 5.5 NNW 7 19 4 10 1007.0 1003.4 0.2
14/10:30pm 19.3 17.3 7.1 45 6.4 NNW 7 15 4 8 1007.1 1003.5 0.2
14/10:00pm 19.6 19.0 7.4 45 6.4 CALM 0 0 0 0 1006.9 1003.3 0.2
14/09:30pm 19.7 19.1 7.4 45 6.5 CALM 0 0 0 0 1006.3 1002.7 0.2
14/09:00pm 19.6 18.8 8.0 47 6.2 WNW 2 7 1 4 1006.0 1002.3 0.2
14/08:30pm 19.8 17.5 9.1 50 5.8 WNW 11 13 6 7 1005.8 1002.2 0.2
14/08:00pm 20.4 18.0 10.2 52 5.7 WNW 13 17 7 9 1005.3 1001.7 0.2
14/07:30pm 21.4 18.7 10.3 49 6.2 WNW 15 19 8 10 1005.1 1001.5 0.2
14/07:00pm 22.6 20.3 9.0 42 7.5 WNW 11 15 6 8 1004.7 1001.0 0.2
14/06:30pm 23.0 20.2 8.7 40 7.9 NW 13 17 7 9 1004.3 1000.6 0.2
14/06:00pm 22.8 19.8 9.2 42 7.6 NNW 15 22 8 12 1004.1 1000.5 0.2
14/05:30pm 22.8 20.0 9.9 44 7.2 NNW 15 20 8 11 1003.8 1000.2 0.2
14/05:00pm 23.2 21.0 9.2 41 7.8 N 11 17 6 9 1003.8 1000.2 0.2
14/04:30pm 23.0 19.9 10.4 45 7.1 NW 17 26 9 14 1004.0 1000.4 0.2
14/04:00pm 22.5 19.8 9.0 42 7.5 NW 13 17 7 9 1004.5 1000.8 0.2
14/03:30pm 21.8 17.5 6.9 38 7.9 WNW 19 26 10 14 1004.7 1001.0 0.2
14/03:00pm 22.1 18.5 9.9 46 6.8 NW 19 26 10 14 1004.6 1000.9 0.2
14/02:30pm 22.1 18.7 9.3 44 7.1 NNW 17 24 9 13 1004.5 1000.8 0.2
14/02:00pm 22.9 20.3 11.9 50 6.4 NW 17 28 9 15 1004.3 1000.6 0.2
14/01:30pm 21.7 18.9 11.4 52 5.9 NNW 17 22 9 12 1004.5 1000.8 0.2
14/01:00pm 21.5 19.7 10.9 51 6.0 NNW 11 20 6 11 1004.9 1001.3 0.2
14/12:30pm 21.0 22.0 14.2 65 4.1 SE 2 9 1 5 1005.0 1001.4 0.2
14/12:00pm 20.8 21.6 14.7 68 3.7 NE 4 11 2 6 1005.2 1001.6 0.2
14/11:30am 20.2 20.0 13.6 66 3.9 SSW 7 15 4 8 1005.0 1001.4 0.2
14/11:00am 19.7 18.6 14.3 71 3.2 S 13 19 7 10 1005.0 1001.4 0.0
14/10:30am 18.9 18.1 14.0 73 2.9 SW 11 15 6 8 1004.9 1001.3 0.0
14/10:00am 18.2 17.1 14.3 78 2.3 SSW 13 20 7 11 1004.6 1000.9 0.0
14/09:30am 17.7 15.5 13.2 75 2.6 SSW 17 20 9 11 1004.3 1000.6 0.0
14/09:00am 17.3 16.0 13.8 80 2.1 SSW 13 19 7 10 1004.0 1000.4 35.4
14/08:30am 16.5 16.0 14.9 90 1.0 SSW 11 15 6 8 1003.8 1000.2 35.4
14/08:00am 15.8 14.8 12.4 80 1.9 S 9 17 5 9 1003.8 1000.2 35.4
14/07:30am 15.2 13.1 12.5 84 1.5 SW 15 20 8 11 1003.6 1000.0 35.4
14/07:09am 15.6 14.3 13.8 89 1.0 WSW 13 19 7 10 1003.6 1000.0 35.2
14/07:00am 15.3 14.0 13.7 90 0.9 WSW 13 19 7 10 1003.3 999.6 35.2
14/06:48am 15.2 14.4 13.9 92 0.8 SW 11 15 6 8 1003.2 999.5 34.2
14/06:30am 14.9 14.1 13.9 94 0.6 SSW 11 13 6 7 1002.9 999.2 33.6
14/06:28am 14.9 14.1 13.9 94 0.6 SSW 11 13 6 7 1002.8 999.1 33.6
14/06:00am 14.7 13.6 14.4 98 0.2 SSW 13 20 7 11 1002.5 998.9 33.6
14/05:51am 14.8 13.8 14.6 99 0.1 SW 13 19 7 10 1002.8 999.1 33.6
14/05:33am 14.9 14.0 14.9 100 0.0 S 13 17 7 9 1001.9 998.2 33.6
14/05:30am 14.9 14.0 14.9 100 0.0 SSW 13 17 7 9 1002.3 998.7 33.6
14/05:00am 15.3 13.8 15.3 100 0.0 SSW 17 20 9 11 1002.3 998.7 33.6
14/04:53am 15.3 14.2 15.3 100 0.0 SSW 15 19 8 10 1002.4 998.8 33.6
14/04:45am 15.4 13.9 15.4 100 0.0 SSW 17 20 9 11 1002.5 998.9 33.6
14/04:41am 15.4 13.6 15.4 100 0.0 S 19 20 10 11 1002.2 998.6 33.6
14/04:30am 15.4 13.9 15.4 100 0.0 SSW 17 20 9 11 1002.3 998.7 33.6
14/04:07am 15.5 14.1 15.5 100 0.0 SSW 17 20 9 11 1002.3 998.7 33.6
14/04:00am 15.6 14.2 15.6 100 0.0 SSW 17 20 9 11 1002.2 998.6 33.6
14/03:30am 15.7 14.4 15.7 100 0.0 SSW 17 26 9 14 1002.2 998.6 33.6
14/03:00am 16.4 15.7 16.4 100 0.0 WSW 15 24 8 13 1002.7 999.0 23.4
14/02:30am 16.8 17.0 16.8 100 0.0 S 11 15 6 8 1002.8 999.1 21.0
14/02:21am 16.9 17.9 16.9 100 0.0 WSW 7 13 4 7 1003.1 999.4 21.0
14/02:18am 17.1 18.4 17.1 100 0.0 WNW 6 13 3 7 1003.0 999.3 21.0
14/02:00am 17.3 18.5 17.3 100 0.0 NW 7 13 4 7 1003.0 999.3 20.4
14/01:30am 16.8 16.6 16.6 99 0.1 N 13 17 7 9 1002.9 999.2 20.4
14/01:13am 16.8 16.9 16.6 99 0.1 NNW 11 15 6 8 1003.1 999.4 20.4
14/01:00am 16.6 15.5 16.4 99 0.1 NNW 17 28 9 15 1003.4 999.7 20.2
14/12:52am 16.7 15.1 16.4 98 0.2 NNW 20 28 11 15 1003.7 1000.1 19.2
14/12:51am 16.6 14.9 16.3 98 0.2 NNW 20 28 11 15 1003.7 1000.1 18.8
14/12:43am 16.6 15.0 16.1 97 0.3 NNW 19 28 10 15 1003.2 999.5 17.0
14/12:30am 15.8 11.8 15.3 97 0.3 WNW 30 44 16 24 1003.1 999.4 16.0
14/12:20am 15.4 11.1 14.4 94 0.6 NW 30 74 16 40 1003.6 1000.0 10.2
14/12:17am 16.8 14.2 15.8 94 0.6 NW 24 74 13 40 1004.0 1000.4 6.6
14/12:16am 17.7 16.2 16.2 91 0.9 NW 19 74 10 40 1004.1 1000.5 4.8
14/12:00am 19.4 20.0 18.6 95 0.5 N 13 20 7 11 1002.2 998.6 3.4
 
Date/Time
EDT
Temp
°C
App
Temp
°C
Dew
Point
°C
Rel
Hum
%
Delta-T
°C
Wind Press
QNH
hPa
Press
MSL
hPa
Rain since
9am
mm
Dir  Spd
km/h
Gust
km/h
Spd
kts
Gust
kts
13/11:45pm 19.1 18.9 18.4 96 0.4 N 17 20 9 11 1002.1 998.5 3.4
13/11:30pm 19.0 18.1 18.2 95 0.5 NNW 20 28 11 15 1002.4 998.8 3.4
13/11:00pm 19.4 16.0 17.7 90 1.1 N 32 41 17 22 1002.5 998.9 3.4
13/10:49pm 19.4 18.8 17.5 89 1.2 N 17 41 9 22 1002.2 998.6 3.4
13/10:41pm 19.2 20.5 17.5 90 1.1 N 7 15 4 8 1001.4 997.7 3.4
13/10:30pm 19.2 16.9 17.7 91 0.9 N 26 43 14 23 1002.5 998.9 3.4
13/10:26pm 19.4 16.0 17.7 90 1.1 NNW 32 44 17 24 1003.6 1000.0 3.4
13/10:00pm 21.0 19.1 16.8 77 2.6 N 22 32 12 17 1003.2 999.5 2.4
13/09:30pm 21.4 19.2 17.0 76 2.8 N 24 32 13 17 1002.7 999.0 2.4
13/09:00pm 21.6 19.2 17.4 77 2.7 N 26 33 14 18 1002.2 998.6 2.4
13/08:30pm 21.7 19.7 17.5 77 2.7 N 24 32 13 17 1001.8 998.1 2.4
13/08:00pm 22.0 20.0 16.5 71 3.4 N 22 30 12 16 1001.8 998.1 2.4
13/07:30pm 22.5 20.4 16.3 68 3.9 NNE 22 32 12 17 1001.5 997.8 2.4
13/07:00pm 23.9 21.5 15.4 59 5.3 NNE 22 32 12 17 1001.3 997.6 2.4
13/06:30pm 24.5 22.2 15.7 58 5.5 NNE 22 30 12 16 1001.4 997.7 2.4
13/06:00pm 25.3 22.6 14.7 51 6.5 N 22 30 12 16 1001.2 997.5 2.4
13/05:30pm 24.3 22.2 14.7 55 5.9 N 19 28 10 15 1000.8 997.2 2.4
13/05:00pm 22.2 20.3 16.7 71 3.5 N 22 28 12 15 1000.8 997.2 2.4
13/04:30pm 21.5 20.3 16.0 71 3.4 NNE 17 26 9 14 1000.6 997.0 2.4
13/04:00pm 19.7 15.8 15.6 77 2.5 W 30 43 16 23 1001.8 998.1 2.4
13/03:38pm 18.7 12.4 16.1 85 1.6 W 44 61 24 33 1003.2 999.5 2.2
13/03:35pm 18.7 11.6 16.1 85 1.6 W 48 61 26 33 1003.3 999.6 2.2
13/03:30pm 18.8 10.1 16.4 86 1.5 WNW 57 83 31 45 1003.4 999.7 2.2
13/03:20pm 21.8 16.2 17.4 76 2.8 WNW 43 72 23 39 1002.3 998.7 1.2
13/03:17pm 23.1 19.4 18.4 75 3.0 NW 35 50 19 27 1002.0 998.4 1.2
13/03:00pm 27.6 24.7 16.2 49 7.3 NNW 26 35 14 19 1001.7 998.0 0.0
13/02:56pm 27.7 24.1 16.3 49 7.2 NNW 30 48 16 26 1001.9 998.2 0.0
13/02:30pm 28.2 24.0 16.1 47 7.7 NNW 33 48 18 26 1002.7 999.0 0.0
13/02:13pm 29.1 25.2 17.0 48 7.8 NNW 33 52 18 28 1002.9 999.2 0.0
13/02:00pm 28.6 23.3 16.2 47 7.9 NNW 39 56 21 30 1003.3 999.6 0.0
13/01:30pm 28.4 23.1 16.3 47 7.7 NNW 39 63 21 34 1003.6 1000.0 0.0
13/01:29pm 28.4 23.0 16.0 47 7.9 NNW 39 63 21 34 1003.6 1000.0 0.0
13/01:00pm 27.5 23.4 16.5 51 7.0 N 33 48 18 26 1004.0 1000.4 0.0
13/12:30pm 26.5 22.6 16.4 53 6.4 NNW 32 44 17 24 1004.5 1000.8 0.0
13/12:10pm 25.7 22.5 16.3 56 5.9 N 28 46 15 25 1004.8 1001.1 0.0
13/12:00pm 25.7 22.7 16.8 58 5.7 N 28 39 15 21 1004.9 1001.3 0.0
13/11:30am 25.1 21.2 16.5 59 5.4 NNW 32 46 17 25 1005.5 1001.9 0.0
13/11:00am 24.7 21.9 17.2 63 4.8 NNW 28 39 15 21 1005.6 1002.0 0.0
13/10:40am 24.9 22.0 17.1 62 5.0 NNW 28 46 15 25 1005.7 1002.1 0.0
13/10:30am 23.9 19.9 16.7 64 4.5 NNW 33 50 18 27 1005.7 1002.1 0.0
13/10:00am 22.9 19.2 16.9 69 3.8 NNW 32 46 17 25 1005.8 1002.2 0.0
13/09:32am 21.8 17.7 16.5 72 3.3 N 33 52 18 28 1006.4 1002.8 0.0
13/09:30am 21.7 17.2 16.4 72 3.3 N 35 52 19 28 1006.4 1002.8 0.0
13/09:24am 21.8 17.6 16.3 71 3.4 NNW 33 52 18 28 1006.5 1002.9 0.0
13/09:00am 21.8 19.0 17.2 75 2.9 N 28 41 15 22 1006.5 1002.9 7.8
13/08:30am 21.2 19.7 17.8 81 2.2 N 22 35 12 19 1006.8 1003.2 7.8
13/08:00am 19.7 17.0 17.5 87 1.4 N 28 41 15 22 1006.9 1003.3 7.8
13/07:30am 18.8 16.8 17.3 91 0.9 N 24 33 13 18 1006.9 1003.3 7.8
13/07:00am 17.9 16.6 17.3 96 0.4 N 20 28 11 15 1007.3 1003.7 7.8
13/06:30am 17.8 17.0 17.2 96 0.4 NNE 17 20 9 11 1007.8 1004.2 7.8
13/06:00am 17.9 16.8 17.3 96 0.4 NNE 19 26 10 14 1007.9 1004.3 7.8

Other Formats:

Comma delimited format used in spreadsheet applications
http://www.bom.gov.au/fwo/IDN60801/IDN60801.95728.axf

JavaScript Object Notation format (JSON) in row-major order
http://www.bom.gov.au/fwo/IDN60801/IDN60801.95728.json